LRTR

Timişoara Traian Vuia Airport

Timişoara, Romania
TAF LRTR 151100Z 1512/1612 24010KT 9999 SCT035 TEMPO 1512/1515 SCT035CB BECMG 1515/1517 35008KT
Issued Valid From Valid To
Aug-15 @ 11:00 UTC
(2 hours ago)
Aug-15 @ 12:00 UTC
(39 minutes ago)
Aug-16 @ 12:00 UTC
(in 23 hours)
Aug-15 @ 12:00 to Aug-15 @ 15:00
TAF LRTR 151100Z 1512/1612 24010KT 9999 SCT035
Wind Visibility Clouds
240° at 10 knots 10,000+ meters
  • Scattered at 3,500' AGL
Temporary Aug-15 @ 12:00 to Aug-15 @ 15:00
TEMPO 1512/1515 SCT035CB
Clouds
  • Scattered at 3,500' AGL
Becoming Aug-15 @ 15:00 to Aug-16 @ 12:00
BECMG 1515/1517 35008KT
Wind Visibility Clouds
350° at 8 knots 10,000+ meters
  • Scattered at 3,500' AGL
TAF LRTR 151100Z 1512/1612 24010KT 9999 SCT035 TEMPO 1512/1515 SCT035CB BECMG 1515/1517 35008KT
Issued Aug-15 @ 11:00 UTC
(2 hours ago)
Valid From Aug-15 @ 12:00 UTC
(39 minutes ago)
Valid To Aug-16 @ 12:00 UTC
(in 23 hours)
Aug-15 @ 12:00 - Aug-15 @ 15:00
Wind Visibility
240° at 10 knots 10,000+ meters
Clouds
  • Scattered at 3,500' AGL
Temporary Aug-15 @ 12:00 - Aug-15 @ 15:00
Clouds
  • Scattered at 3,500' AGL
Becoming Aug-15 @ 15:00 - Aug-16 @ 12:00
Wind Visibility
350° at 8 knots 10,000+ meters
Clouds
  • Scattered at 3,500' AGL